createdAt,value
2019-03-03T00:00:11.089Z,33.23
2019-03-03T00:02:52.835Z,32.70
2019-03-03T00:05:19.391Z,34.53
2019-03-03T00:07:45.976Z,32.93
2019-03-03T00:10:12.840Z,34.58
2019-03-03T00:12:39.407Z,32.73
2019-03-03T00:15:10.492Z,35.20
2019-03-03T00:17:36.990Z,32.93
2019-03-03T00:20:07.123Z,33.28
2019-03-03T00:22:33.624Z,33.90
2019-03-03T00:25:00.032Z,32.73
2019-03-03T00:27:27.293Z,32.67
2019-03-03T00:29:53.599Z,32.67
2019-03-03T00:32:21.470Z,32.45
2019-03-03T00:34:48.185Z,31.65
2019-03-03T00:37:16.666Z,30.88
2019-03-03T00:40:04.671Z,32.33
2019-03-03T00:42:33.102Z,31.77
2019-03-03T00:45:07.577Z,31.42
2019-03-03T00:47:50.909Z,33.58
2019-03-03T00:50:19.235Z,30.88
2019-03-03T00:52:56.692Z,31.82
2019-03-03T00:55:33.951Z,30.68
2019-03-03T00:58:08.313Z,31.82
2019-03-03T01:00:36.637Z,32.42
2019-03-03T01:03:05.002Z,32.28
2019-03-03T01:05:51.450Z,32.73
2019-03-03T01:08:19.733Z,30.25
2019-03-03T01:10:50.985Z,30.70
2019-03-03T01:13:25.392Z,29.80
2019-03-03T01:16:05.850Z,31.10
2019-03-03T01:18:46.543Z,31.95
2019-03-03T01:21:27.802Z,29.50
2019-03-03T01:24:04.953Z,30.72
2019-03-03T01:26:51.301Z,31.33
2019-03-03T01:29:18.590Z,30.82
2019-03-03T01:32:04.947Z,31.05
2019-03-03T01:34:44.821Z,31.05
2019-03-03T01:37:11.404Z,31.40
2019-03-03T01:39:37.859Z,30.17
2019-03-03T01:42:04.241Z,31.12
2019-03-03T01:44:30.711Z,30.20
2019-03-03T01:46:57.116Z,30.25
2019-03-03T01:49:24.267Z,31.50
2019-03-03T01:51:50.572Z,32.83
2019-03-03T01:54:16.996Z,30.85
2019-03-03T01:56:43.475Z,31.97
2019-03-03T01:59:09.912Z,33.80
2019-03-03T02:01:36.400Z,33.00
2019-03-03T02:04:02.820Z,30.95
2019-03-03T02:06:29.332Z,30.12
2019-03-03T02:08:55.806Z,29.60
2019-03-03T02:11:22.292Z,29.67
2019-03-03T02:14:08.573Z,28.20
2019-03-03T02:16:35.047Z,28.83
2019-03-03T02:19:01.438Z,32.42
2019-03-03T02:21:29.212Z,32.40
2019-03-03T02:23:55.707Z,31.65
2019-03-03T02:26:22.187Z,32.05
2019-03-03T02:28:48.759Z,30.52
2019-03-03T02:31:16.110Z,30.60
2019-03-03T02:33:42.682Z,30.32
2019-03-03T02:36:09.150Z,31.02
2019-03-03T02:38:35.656Z,31.75
2019-03-03T02:41:03.143Z,33.65
2019-03-03T02:43:42.928Z,31.68
2019-03-03T02:46:09.501Z,31.23
2019-03-03T02:48:36.046Z,32.50
2019-03-03T02:51:03.217Z,31.45
2019-03-03T02:53:30.638Z,33.10
2019-03-03T02:55:57.370Z,31.85
2019-03-03T02:58:24.888Z,34.83
2019-03-03T03:03:35.833Z,37.13
2019-03-03T03:06:10.298Z,36.03
2019-03-03T03:09:13.300Z,40.20
2019-03-03T03:12:06.514Z,43.78
2019-03-03T03:14:53.165Z,46.42
2019-03-03T03:17:21.620Z,48.90
2019-03-03T03:19:50.007Z,49.50
2019-03-03T03:22:27.347Z,49.38
2019-03-03T03:24:55.717Z,49.03
2019-03-03T03:27:24.062Z,45.05
2019-03-03T03:30:09.337Z,47.13
2019-03-03T03:35:10.838Z,45.30
2019-03-03T03:37:54.500Z,48.87
2019-03-03T03:40:28.986Z,47.83
2019-03-03T03:42:57.989Z,46.65
2019-03-03T03:45:44.687Z,47.80
2019-03-03T03:48:16.020Z,46.08
2019-03-03T03:50:44.565Z,46.25
2019-03-03T03:53:12.832Z,46.25
2019-03-03T03:55:43.968Z,45.85
2019-03-03T03:58:18.713Z,45.98
2019-03-03T04:00:56.231Z,45.38
2019-03-03T04:03:31.725Z,43.83
2019-03-03T04:06:16.984Z,40.03
2019-03-03T04:08:45.280Z,43.02
2019-03-03T04:11:30.217Z,42.17
2019-03-03T04:14:04.344Z,40.15
2019-03-03T04:16:32.687Z,41.33
2019-03-03T04:19:19.101Z,43.48
2019-03-03T04:21:56.569Z,41.23
2019-03-03T04:24:33.888Z,42.80
2019-03-03T04:27:02.275Z,40.63
2019-03-03T04:29:30.642Z,41.13
2019-03-03T04:32:05.069Z,41.28
2019-03-03T04:34:34.558Z,41.95
2019-03-03T04:37:02.947Z,39.20
2019-03-03T04:39:34.259Z,40.03
2019-03-03T04:42:17.570Z,36.83
2019-03-03T04:44:58.179Z,39.03
2019-03-03T04:47:41.761Z,37.65
2019-03-03T04:50:10.098Z,37.53
2019-03-03T04:52:38.481Z,36.15
2019-03-03T04:55:08.260Z,38.13
2019-03-03T04:57:53.056Z,37.65
2019-03-03T05:00:38.415Z,37.08
2019-03-03T05:03:06.826Z,35.17
2019-03-03T05:05:48.586Z,35.83
2019-03-03T05:08:18.046Z,36.15
2019-03-03T05:10:52.202Z,35.98
2019-03-03T05:13:26.574Z,35.75
2019-03-03T05:15:54.919Z,35.28
2019-03-03T05:18:23.269Z,35.65
2019-03-03T05:20:50.755Z,35.23
2019-03-03T05:23:17.342Z,34.03
2019-03-03T05:25:43.782Z,34.45
2019-03-03T05:28:11.467Z,35.20
2019-03-03T05:30:37.907Z,34.88
2019-03-03T05:33:04.358Z,35.70
2019-03-03T05:35:31.195Z,35.38
2019-03-03T05:37:57.692Z,35.50
2019-03-03T05:40:24.154Z,35.33
2019-03-03T05:42:50.653Z,35.30
2019-03-03T05:45:30.501Z,35.73
2019-03-03T05:47:56.937Z,34.38
2019-03-03T05:50:36.594Z,34.88
2019-03-03T05:53:02.959Z,36.13
2019-03-03T05:55:29.494Z,34.43
2019-03-03T05:57:56.912Z,34.45
2019-03-03T06:00:23.460Z,33.73
2019-03-03T06:02:49.883Z,35.63
2019-03-03T06:05:16.290Z,36.30
2019-03-03T06:07:42.956Z,36.55
2019-03-03T06:10:09.373Z,35.03
2019-03-03T06:12:35.836Z,36.50
2019-03-03T06:15:05.052Z,36.53
2019-03-03T06:17:45.281Z,37.20
2019-03-03T06:20:11.875Z,35.40
2019-03-03T06:22:38.273Z,35.30
2019-03-03T06:25:06.816Z,35.78
2019-03-03T06:27:33.248Z,36.25
2019-03-03T06:29:59.580Z,34.95
2019-03-03T06:32:26.158Z,36.85
2019-03-03T06:34:52.620Z,37.00
2019-03-03T06:37:19.115Z,37.35
2019-03-03T06:39:45.694Z,36.38
2019-03-03T06:42:12.149Z,38.40
2019-03-03T06:44:38.659Z,37.05
2019-03-03T06:47:05.129Z,37.25
2019-03-03T06:49:32.969Z,36.60
2019-03-03T06:51:59.416Z,38.30
2019-03-03T06:54:25.956Z,37.38
2019-03-03T06:56:52.487Z,37.05
2019-03-03T06:59:18.947Z,37.90
2019-03-03T07:01:46.503Z,39.13
2019-03-03T07:04:12.998Z,38.38
2019-03-03T07:06:39.554Z,38.67
2019-03-03T07:09:06.544Z,38.80
2019-03-03T07:11:34.127Z,40.20
2019-03-03T07:14:00.820Z,38.98
2019-03-03T07:16:27.142Z,39.95
2019-03-03T07:18:53.671Z,38.38
2019-03-03T07:21:33.912Z,41.10
2019-03-03T07:24:00.340Z,39.50
2019-03-03T07:26:26.683Z,41.70
2019-03-03T07:28:53.013Z,40.70
2019-03-03T07:31:19.464Z,40.88
2019-03-03T07:34:18.740Z,41.02
2019-03-03T07:36:45.449Z,38.90
2019-03-03T07:39:16.966Z,39.78
2019-03-03T07:41:43.984Z,42.93
2019-03-03T07:44:10.415Z,40.95
2019-03-03T07:46:36.915Z,42.78
2019-03-03T07:49:03.373Z,43.20
2019-03-03T07:51:43.040Z,41.05
2019-03-03T07:54:22.778Z,41.95
2019-03-03T07:56:49.287Z,42.90
2019-03-03T07:59:15.748Z,43.50
2019-03-03T08:01:42.195Z,43.25
2019-03-03T08:04:08.662Z,43.25
2019-03-03T08:06:35.171Z,41.58
2019-03-03T08:09:01.894Z,42.48
2019-03-03T08:11:30.158Z,40.20
2019-03-03T08:13:56.655Z,40.85
2019-03-03T08:16:23.245Z,40.28
2019-03-03T08:18:49.816Z,42.85
2019-03-03T08:21:16.350Z,41.95
2019-03-03T08:23:45.499Z,38.95
2019-03-03T08:26:12.129Z,37.55
2019-03-03T08:28:38.603Z,37.40
2019-03-03T08:31:05.052Z,36.20
2019-03-03T08:33:31.619Z,35.73
2019-03-03T08:35:58.126Z,36.10
2019-03-03T08:38:24.619Z,36.93
2019-03-03T08:40:51.166Z,34.58
2019-03-03T08:43:28.412Z,36.58
2019-03-03T08:45:59.479Z,35.95
2019-03-03T08:48:33.691Z,36.03
2019-03-03T08:51:11.213Z,39.48
2019-03-03T08:53:45.583Z,39.48
2019-03-03T08:56:30.829Z,38.75
2019-03-03T09:01:39.623Z,39.18
2019-03-03T09:04:10.905Z,39.55
2019-03-03T09:06:48.068Z,42.13
2019-03-03T09:09:19.105Z,43.50
2019-03-03T09:11:56.724Z,45.33
2019-03-03T09:14:39.626Z,47.05
2019-03-03T09:17:24.818Z,45.60
2019-03-03T09:20:02.516Z,45.33
2019-03-03T09:22:48.423Z,45.05
2019-03-03T09:25:28.907Z,52.62
2019-03-03T09:27:57.430Z,50.98
2019-03-03T09:30:34.560Z,49.98
2019-03-03T09:33:02.966Z,49.98
2019-03-03T09:35:48.320Z,47.88
2019-03-03T09:38:26.721Z,43.90
2019-03-03T09:40:55.106Z,40.15
2019-03-03T09:43:29.221Z,42.75
2019-03-03T09:46:00.625Z,44.33
2019-03-03T09:48:38.175Z,43.52
2019-03-03T09:51:09.776Z,47.05
2019-03-03T09:53:39.259Z,47.67
2019-03-03T09:56:10.477Z,49.27
2019-03-03T09:58:55.838Z,50.83
2019-03-03T10:03:57.596Z,52.98
2019-03-03T10:06:25.923Z,56.02
2019-03-03T10:08:54.251Z,55.73
2019-03-03T10:11:34.693Z,55.20
2019-03-03T10:14:15.380Z,55.67
2019-03-03T10:16:49.831Z,56.48
2019-03-03T10:19:38.219Z,59.48
2019-03-03T10:22:09.753Z,58.28
2019-03-03T10:24:41.125Z,56.73
2019-03-03T10:27:18.279Z,59.60
2019-03-03T10:29:46.744Z,58.95
2019-03-03T10:32:18.174Z,54.45
2019-03-03T10:34:46.617Z,54.25
2019-03-03T10:37:15.018Z,53.08
2019-03-03T10:39:53.391Z,55.88
2019-03-03T10:42:24.557Z,56.00
2019-03-03T10:44:58.644Z,56.85
2019-03-03T10:47:43.786Z,57.27
2019-03-03T10:50:14.764Z,54.50
2019-03-03T10:52:45.943Z,55.98
2019-03-03T10:55:14.393Z,57.10
2019-03-03T10:57:51.851Z,57.35
2019-03-03T11:00:26.454Z,56.90
2019-03-03T11:02:57.661Z,57.15
2019-03-03T11:05:31.834Z,56.63
2019-03-03T11:08:06.071Z,61.92
2019-03-03T11:10:57.171Z,59.88
2019-03-03T11:13:18.411Z,57.05
2019-03-03T11:15:58.829Z,56.75
2019-03-03T11:18:45.499Z,58.63
2019-03-03T11:21:31.019Z,59.35
2019-03-03T11:23:59.462Z,58.13
2019-03-03T11:26:34.055Z,57.75
2019-03-03T11:29:11.448Z,60.17
2019-03-03T11:31:46.211Z,58.70
2019-03-03T11:34:14.627Z,60.35
2019-03-03T11:36:43.088Z,59.77
2019-03-03T11:39:17.471Z,58.02
2019-03-03T11:41:52.549Z,61.15
2019-03-03T11:44:37.818Z,56.85
2019-03-03T11:47:24.546Z,57.35
2019-03-03T11:49:59.308Z,54.95
2019-03-03T11:52:39.859Z,54.95
2019-03-03T11:55:23.516Z,53.28
2019-03-03T11:57:54.689Z,51.68
2019-03-03T12:00:39.446Z,57.20
2019-03-03T12:03:12.563Z,52.73
2019-03-03T12:06:01.054Z,52.05
2019-03-03T12:08:36.083Z,56.55
2019-03-03T12:11:07.363Z,58.28
2019-03-03T12:14:06.953Z,55.17
2019-03-03T12:16:35.451Z,56.73
2019-03-03T12:19:20.263Z,55.67
2019-03-03T12:21:54.726Z,59.13
2019-03-03T12:24:23.141Z,57.80
2019-03-03T12:27:09.894Z,54.15
2019-03-03T12:29:38.203Z,53.68
2019-03-03T12:32:06.591Z,51.55
2019-03-03T12:34:34.946Z,52.58
2019-03-03T12:37:09.461Z,50.23
2019-03-03T12:39:54.732Z,50.33
2019-03-03T12:45:07.119Z,50.15
2019-03-03T12:48:01.419Z,52.75
2019-03-03T12:50:38.857Z,50.45
2019-03-03T12:53:13.498Z,51.63
2019-03-03T12:55:45.016Z,51.05
2019-03-03T12:58:16.423Z,54.08
2019-03-03T13:01:07.611Z,54.45
2019-03-03T13:03:48.220Z,53.60
2019-03-03T13:06:25.661Z,53.30
2019-03-03T13:09:00.112Z,52.98
2019-03-03T13:11:42.558Z,51.18
2019-03-03T13:14:11.054Z,48.68
2019-03-03T13:16:45.567Z,50.33
2019-03-03T13:19:14.272Z,49.30
2019-03-03T13:21:54.682Z,48.83
2019-03-03T13:24:23.062Z,49.25
2019-03-03T13:27:00.819Z,43.38
2019-03-03T13:29:32.536Z,43.05
2019-03-03T13:32:03.803Z,44.08
2019-03-03T13:34:44.367Z,42.03
2019-03-03T13:37:32.519Z,42.58
2019-03-03T13:40:04.161Z,41.37
2019-03-03T13:42:50.112Z,39.60
2019-03-03T13:45:36.366Z,42.05
2019-03-03T13:48:03.050Z,39.25
2019-03-03T13:50:29.847Z,40.10
2019-03-03T13:52:56.423Z,39.48
2019-03-03T13:55:22.965Z,40.00
2019-03-03T13:57:49.354Z,40.92
2019-03-03T14:00:19.867Z,41.42
2019-03-03T14:02:47.272Z,42.38
2019-03-03T14:05:16.301Z,40.50
2019-03-03T14:07:43.349Z,41.15
2019-03-03T14:10:09.910Z,41.25
2019-03-03T14:12:38.379Z,41.00
2019-03-03T14:15:24.931Z,41.02
2019-03-03T14:17:51.907Z,40.80
2019-03-03T14:20:20.744Z,40.52
2019-03-03T14:22:47.857Z,40.20
2019-03-03T14:25:15.154Z,41.85
2019-03-03T14:27:41.858Z,39.45
2019-03-03T14:30:14.213Z,39.65
2019-03-03T14:32:40.708Z,41.88
2019-03-03T14:35:09.396Z,39.65
2019-03-03T14:37:36.497Z,40.55
2019-03-03T14:40:06.703Z,43.42
2019-03-03T14:42:34.367Z,44.25
2019-03-03T14:45:01.126Z,45.00
2019-03-03T14:47:28.050Z,44.98
2019-03-03T14:49:54.974Z,44.35
2019-03-03T14:52:21.714Z,43.75
2019-03-03T14:54:48.445Z,44.45
2019-03-03T14:57:14.877Z,42.75
2019-03-03T14:59:41.427Z,40.55
2019-03-03T15:02:09.341Z,41.48
2019-03-03T15:04:36.171Z,37.80
2019-03-03T15:07:02.662Z,40.50
2019-03-03T15:09:29.198Z,42.05
2019-03-03T15:11:55.650Z,41.40
2019-03-03T15:14:22.122Z,42.53
2019-03-03T15:16:48.679Z,43.00
2019-03-03T15:19:16.190Z,42.58
2019-03-03T15:21:42.815Z,42.17
2019-03-03T15:24:09.363Z,49.48
2019-03-03T15:26:36.015Z,44.45
2019-03-03T15:29:02.397Z,40.67
2019-03-03T15:31:37.541Z,42.75
2019-03-03T15:33:57.592Z,40.67
2019-03-03T15:36:24.119Z,42.40
2019-03-03T15:38:51.060Z,41.30
2019-03-03T15:41:17.778Z,43.33
2019-03-03T15:43:45.558Z,41.33
2019-03-03T15:46:12.185Z,40.80
2019-03-03T15:48:38.587Z,39.55
2019-03-03T15:51:05.087Z,39.48
2019-03-03T15:53:32.957Z,38.98
2019-03-03T15:55:59.337Z,37.60
2019-03-03T15:58:25.983Z,37.90
2019-03-03T16:00:52.683Z,37.95
2019-03-03T16:03:19.626Z,36.98
2019-03-03T16:05:46.623Z,37.53
2019-03-03T16:08:13.546Z,37.23
2019-03-03T16:10:40.556Z,35.73
2019-03-03T16:13:07.420Z,36.60
2019-03-03T16:15:34.437Z,36.15
2019-03-03T16:18:01.467Z,36.00
2019-03-03T16:20:30.595Z,37.88
2019-03-03T16:23:10.825Z,38.13
2019-03-03T16:25:40.609Z,37.55
2019-03-03T16:28:07.611Z,37.80
2019-03-03T16:30:35.137Z,37.50
2019-03-03T16:33:02.812Z,38.92
2019-03-03T16:35:30.056Z,39.33
2019-03-03T16:37:58.984Z,39.27
2019-03-03T16:40:26.185Z,39.03
2019-03-03T16:42:53.879Z,39.10
2019-03-03T16:45:34.263Z,39.98
2019-03-03T16:48:01.298Z,41.20
2019-03-03T16:50:30.293Z,40.28
2019-03-03T16:53:04.521Z,39.00
2019-03-03T16:55:51.188Z,39.18
2019-03-03T16:58:18.973Z,38.40
2019-03-03T17:00:46.146Z,37.65
2019-03-03T17:03:13.290Z,35.23
2019-03-03T17:05:41.313Z,37.05
2019-03-03T17:08:09.693Z,37.17
2019-03-03T17:10:37.405Z,37.10
2019-03-03T17:13:04.356Z,35.43
2019-03-03T17:15:31.996Z,35.63
2019-03-03T17:18:18.663Z,36.23
2019-03-03T17:20:48.391Z,36.42
2019-03-03T17:23:16.137Z,36.65
2019-03-03T17:25:43.373Z,34.63
2019-03-03T17:28:11.074Z,36.35
2019-03-03T17:30:39.171Z,35.17
2019-03-03T17:33:07.028Z,36.03
2019-03-03T17:35:33.966Z,35.75
2019-03-03T17:38:20.745Z,36.83
2019-03-03T17:40:50.470Z,36.95
2019-03-03T17:43:37.152Z,35.43
2019-03-03T17:46:06.052Z,36.50
2019-03-03T17:48:33.745Z,36.73
2019-03-03T17:51:01.861Z,37.10
2019-03-03T17:53:30.511Z,35.63
2019-03-03T17:55:57.903Z,35.08
2019-03-03T17:58:27.311Z,36.50
2019-03-03T18:00:54.673Z,35.55
2019-03-03T18:03:22.474Z,33.50
2019-03-03T18:05:49.632Z,35.08
2019-03-03T18:08:17.247Z,35.68
2019-03-03T18:10:47.425Z,36.35
2019-03-03T18:13:14.409Z,35.60
2019-03-03T18:15:41.597Z,37.42
2019-03-03T18:18:08.866Z,36.45
2019-03-03T18:20:35.918Z,36.65
2019-03-03T18:23:02.866Z,35.45
2019-03-03T18:25:35.353Z,35.43
2019-03-03T18:28:15.542Z,36.08
2019-03-03T18:30:42.545Z,35.40
2019-03-03T18:33:09.577Z,34.45
2019-03-03T18:35:36.623Z,36.70
2019-03-03T18:38:03.581Z,36.15
2019-03-03T18:40:30.608Z,34.67
2019-03-03T18:43:03.285Z,35.88
2019-03-03T18:45:30.651Z,35.30
2019-03-03T18:48:05.117Z,35.00
2019-03-03T18:50:31.954Z,37.85
2019-03-03T18:53:00.059Z,37.48
2019-03-03T18:55:27.045Z,35.38
2019-03-03T18:57:53.730Z,37.58
2019-03-03T19:00:23.316Z,34.43
2019-03-03T19:02:51.939Z,34.65
2019-03-03T19:05:18.978Z,35.48
2019-03-03T19:07:46.037Z,36.03
2019-03-03T19:10:19.449Z,33.73
2019-03-03T19:12:46.384Z,34.73
2019-03-03T19:15:16.120Z,34.73
2019-03-03T19:17:42.950Z,34.88
2019-03-03T19:20:12.047Z,33.58
2019-03-03T19:22:38.963Z,35.28
2019-03-03T19:25:08.462Z,33.75
2019-03-03T19:27:35.568Z,34.75
2019-03-03T19:30:05.772Z,34.45
2019-03-03T19:32:34.056Z,33.48
2019-03-03T19:35:01.075Z,34.23
2019-03-03T19:37:28.110Z,34.90
2019-03-03T19:39:55.063Z,32.33
2019-03-03T19:42:22.068Z,31.55
2019-03-03T19:44:57.878Z,31.75
2019-03-03T19:47:24.851Z,32.40
2019-03-03T19:49:52.018Z,31.82
2019-03-03T19:52:19.465Z,32.28
2019-03-03T19:54:46.426Z,32.73
2019-03-03T19:57:17.771Z,33.18
2019-03-03T19:59:44.832Z,34.33
2019-03-03T20:02:11.986Z,33.83
2019-03-03T20:04:38.980Z,32.42
2019-03-03T20:07:06.720Z,31.35
2019-03-03T20:09:36.711Z,31.93
2019-03-03T20:12:04.148Z,32.23
2019-03-03T20:14:31.293Z,32.30
2019-03-03T20:16:59.347Z,33.38
2019-03-03T20:19:26.257Z,32.73
2019-03-03T20:21:53.139Z,31.95
2019-03-03T20:24:19.795Z,32.75
2019-03-03T20:26:46.665Z,30.15
2019-03-03T20:29:13.255Z,31.50
2019-03-03T20:31:39.906Z,31.70
2019-03-03T20:34:06.949Z,30.77
2019-03-03T20:36:33.730Z,30.92
2019-03-03T20:39:00.619Z,30.27
2019-03-03T20:41:27.284Z,32.42
2019-03-03T20:43:53.869Z,30.77
2019-03-03T20:46:20.571Z,30.62
2019-03-03T20:48:56.472Z,31.93
2019-03-03T20:51:23.260Z,28.95
2019-03-03T20:53:55.865Z,29.95
2019-03-03T20:56:22.451Z,31.77
2019-03-03T20:58:49.239Z,30.40
2019-03-03T21:01:15.870Z,29.42
2019-03-03T21:03:42.840Z,29.63
2019-03-03T21:06:09.431Z,29.67
2019-03-03T21:08:36.089Z,28.55
2019-03-03T21:11:02.687Z,29.10
2019-03-03T21:13:55.638Z,30.95
2019-03-03T21:16:22.249Z,31.42
2019-03-03T21:18:48.945Z,30.52
2019-03-03T21:21:15.648Z,30.20
2019-03-03T21:23:42.199Z,29.20
2019-03-03T21:26:08.824Z,29.37
2019-03-03T21:28:35.509Z,30.20
2019-03-03T21:31:02.191Z,30.17
2019-03-03T21:33:28.863Z,31.95
2019-03-03T21:35:55.715Z,31.80
2019-03-03T21:38:22.214Z,31.15
2019-03-03T21:40:48.776Z,30.55
2019-03-03T21:43:15.466Z,30.92
2019-03-03T21:45:42.102Z,30.27
2019-03-03T21:48:08.596Z,32.35
2019-03-03T21:50:35.260Z,30.48
2019-03-03T21:53:02.428Z,31.00
2019-03-03T21:55:29.009Z,31.27
2019-03-03T21:57:55.740Z,38.15
2019-03-03T22:00:25.934Z,37.05
2019-03-03T22:02:55.968Z,40.88
2019-03-03T22:05:22.363Z,35.63
2019-03-03T22:07:48.805Z,36.98
2019-03-03T22:10:16.483Z,34.58
2019-03-03T22:12:43.282Z,35.25
2019-03-03T22:15:11.044Z,32.98
2019-03-03T22:17:37.434Z,33.02
2019-03-03T22:20:07.107Z,32.98
2019-03-03T22:22:33.603Z,32.20
2019-03-03T22:25:00.145Z,31.57
2019-03-03T22:27:46.857Z,31.57
2019-03-03T22:30:16.169Z,33.42
2019-03-03T22:32:42.697Z,31.60
2019-03-03T22:35:09.248Z,33.50
2019-03-03T22:37:35.764Z,34.90
2019-03-03T22:40:04.585Z,33.90
2019-03-03T22:42:31.092Z,33.90
2019-03-03T22:44:57.666Z,34.73
2019-03-03T22:47:23.999Z,34.03
2019-03-03T22:49:50.510Z,32.70
2019-03-03T22:52:16.983Z,33.40
2019-03-03T22:54:43.483Z,32.23
2019-03-03T22:57:10.026Z,32.30
2019-03-03T22:59:56.263Z,32.42
2019-03-03T23:02:22.737Z,32.10
2019-03-03T23:04:55.743Z,30.97
2019-03-03T23:07:25.981Z,31.57
2019-03-03T23:10:15.702Z,30.62
2019-03-03T23:12:55.061Z,28.95
2019-03-03T23:15:57.263Z,31.87
2019-03-03T23:18:33.704Z,32.83
2019-03-03T23:21:25.425Z,34.30
2019-03-03T23:24:05.024Z,33.38
2019-03-03T23:26:31.552Z,32.10
2019-03-03T23:28:57.941Z,31.57
2019-03-03T23:31:24.429Z,32.05
2019-03-03T23:33:50.916Z,31.12
2019-03-03T23:36:17.396Z,30.80
2019-03-03T23:38:43.820Z,29.67
2019-03-03T23:41:17.036Z,30.32
2019-03-03T23:43:43.427Z,30.08
2019-03-03T23:46:09.864Z,29.42
2019-03-03T23:48:36.235Z,31.25
2019-03-03T23:51:02.883Z,31.02
2019-03-03T23:53:29.355Z,28.35
2019-03-03T23:55:55.849Z,27.58
2019-03-03T23:58:22.307Z,29.27
